sensor_id;sensor_type;location;lat;lon;timestamp;pressure;altitude;pressure_sealevel;temperature;humidity
29825;BME280;16713;52.916;12.834;2023-06-14T00:01:51;101222.34;;;15.89;58.76
29825;BME280;16713;52.916;12.834;2023-06-14T00:04:17;101209.34;;;15.93;58.46
29825;BME280;16713;52.916;12.834;2023-06-14T00:06:44;101207.75;;;15.92;59.14
29825;BME280;16713;52.916;12.834;2023-06-14T00:09:12;101206.97;;;15.92;58.64
29825;BME280;16713;52.916;12.834;2023-06-14T00:11:44;101201.28;;;15.78;58.71
29825;BME280;16713;52.916;12.834;2023-06-14T00:14:10;101194.19;;;15.80;58.33
29825;BME280;16713;52.916;12.834;2023-06-14T00:16:37;101198.84;;;15.73;58.61
29825;BME280;16713;52.916;12.834;2023-06-14T00:19:05;101201.53;;;15.66;59.77
29825;BME280;16713;52.916;12.834;2023-06-14T00:21:31;101217.56;;;15.53;59.07
29825;BME280;16713;52.916;12.834;2023-06-14T00:23:58;101214.97;;;15.38;59.77
29825;BME280;16713;52.916;12.834;2023-06-14T00:26:26;101214.91;;;15.34;59.67
29825;BME280;16713;52.916;12.834;2023-06-14T00:28:54;101211.56;;;15.22;59.43
29825;BME280;16713;52.916;12.834;2023-06-14T00:31:20;101199.63;;;15.14;59.63
29825;BME280;16713;52.916;12.834;2023-06-14T00:33:47;101216.47;;;15.06;60.38
29825;BME280;16713;52.916;12.834;2023-06-14T00:36:13;101215.59;;;14.98;61.21
29825;BME280;16713;52.916;12.834;2023-06-14T00:38:40;101215.91;;;14.93;61.55
29825;BME280;16713;52.916;12.834;2023-06-14T00:41:07;101215.09;;;14.93;60.24
29825;BME280;16713;52.916;12.834;2023-06-14T00:43:33;101225.47;;;14.99;61.16
29825;BME280;16713;52.916;12.834;2023-06-14T00:46:01;101221.91;;;14.99;60.37
29825;BME280;16713;52.916;12.834;2023-06-14T00:48:28;101223.81;;;14.95;60.47
29825;BME280;16713;52.916;12.834;2023-06-14T00:50:55;101211.28;;;15.01;60.75
29825;BME280;16713;52.916;12.834;2023-06-14T00:53:22;101215.22;;;15.00;60.25
29825;BME280;16713;52.916;12.834;2023-06-14T00:55:51;101219.84;;;14.92;60.14
29825;BME280;16713;52.916;12.834;2023-06-14T00:58:18;101224.13;;;14.90;61.58
29825;BME280;16713;52.916;12.834;2023-06-14T01:00:45;101219.28;;;14.83;60.57
29825;BME280;16713;52.916;12.834;2023-06-14T01:03:12;101224.75;;;14.80;60.51
29825;BME280;16713;52.916;12.834;2023-06-14T01:05:39;101227.22;;;14.62;61.52
29825;BME280;16713;52.916;12.834;2023-06-14T01:11:04;101235.00;;;14.34;60.95
29825;BME280;16713;52.916;12.834;2023-06-14T01:13:32;101233.03;;;14.12;62.68
29825;BME280;16713;52.916;12.834;2023-06-14T01:15:59;101233.72;;;14.09;62.64
29825;BME280;16713;52.916;12.834;2023-06-14T01:18:28;101234.59;;;14.13;63.02
29825;BME280;16713;52.916;12.834;2023-06-14T01:20:56;101230.19;;;14.08;63.84
29825;BME280;16713;52.916;12.834;2023-06-14T01:23:23;101230.97;;;14.09;64.02
29825;BME280;16713;52.916;12.834;2023-06-14T01:25:50;101238.47;;;14.08;63.54
29825;BME280;16713;52.916;12.834;2023-06-14T01:28:20;101231.41;;;14.11;64.44
29825;BME280;16713;52.916;12.834;2023-06-14T01:30:50;101231.41;;;14.11;63.76
29825;BME280;16713;52.916;12.834;2023-06-14T01:33:19;101226.19;;;14.06;64.31
29825;BME280;16713;52.916;12.834;2023-06-14T01:35:48;101224.69;;;14.08;65.13
29825;BME280;16713;52.916;12.834;2023-06-14T01:38:17;101234.47;;;14.06;64.18
29825;BME280;16713;52.916;12.834;2023-06-14T01:40:46;101221.66;;;13.94;65.61
29825;BME280;16713;52.916;12.834;2023-06-14T01:43:15;101220.97;;;14.01;65.14
29825;BME280;16713;52.916;12.834;2023-06-14T01:45:42;101218.53;;;13.96;65.58
29825;BME280;16713;52.916;12.834;2023-06-14T01:48:11;101222.88;;;13.97;64.08
29825;BME280;16713;52.916;12.834;2023-06-14T01:50:38;101215.31;;;13.94;64.29
29825;BME280;16713;52.916;12.834;2023-06-14T01:53:09;101227.81;;;14.07;63.93
29825;BME280;16713;52.916;12.834;2023-06-14T01:55:36;101224.75;;;14.12;64.31
29825;BME280;16713;52.916;12.834;2023-06-14T01:58:04;101229.59;;;14.18;64.71
29825;BME280;16713;52.916;12.834;2023-06-14T02:00:32;101230.00;;;14.20;64.61
29825;BME280;16713;52.916;12.834;2023-06-14T02:02:58;101232.75;;;14.20;63.50
29825;BME280;16713;52.916;12.834;2023-06-14T02:05:25;101235.16;;;14.22;64.58
29825;BME280;16713;52.916;12.834;2023-06-14T02:07:52;101232.66;;;14.13;63.67
29825;BME280;16713;52.916;12.834;2023-06-14T02:10:20;101240.94;;;14.13;63.12
29825;BME280;16713;52.916;12.834;2023-06-14T02:12:47;101244.06;;;14.12;64.54
29825;BME280;16713;52.916;12.834;2023-06-14T02:15:14;101244.06;;;14.12;64.43
29825;BME280;16713;52.916;12.834;2023-06-14T02:17:44;101237.22;;;14.06;64.85
29825;BME280;16713;52.916;12.834;2023-06-14T02:20:11;101249.22;;;14.13;63.98
29825;BME280;16713;52.916;12.834;2023-06-14T02:22:39;101244.41;;;14.10;65.01
29825;BME280;16713;52.916;12.834;2023-06-14T02:25:05;101243.34;;;13.96;64.96
29825;BME280;16713;52.916;12.834;2023-06-14T02:27:34;101245.88;;;13.85;64.50
29825;BME280;16713;52.916;12.834;2023-06-14T02:30:01;101237.13;;;13.80;64.31
29825;BME280;16713;52.916;12.834;2023-06-14T02:32:27;101237.81;;;13.77;65.61
29825;BME280;16713;52.916;12.834;2023-06-14T02:34:54;101237.13;;;13.64;64.33
29825;BME280;16713;52.916;12.834;2023-06-14T02:37:20;101245.41;;;13.64;64.65
29825;BME280;16713;52.916;12.834;2023-06-14T02:39:48;101248.53;;;13.63;65.98
29825;BME280;16713;52.916;12.834;2023-06-14T02:42:14;101242.56;;;13.61;65.84
29825;BME280;16713;52.916;12.834;2023-06-14T02:44:41;101244.38;;;13.53;64.60
29825;BME280;16713;52.916;12.834;2023-06-14T02:47:07;101245.91;;;13.51;65.28
29825;BME280;16713;52.916;12.834;2023-06-14T02:49:34;101243.44;;;13.46;65.39
29825;BME280;16713;52.916;12.834;2023-06-14T02:52:00;101244.59;;;13.45;65.66
29825;BME280;16713;52.916;12.834;2023-06-14T02:54:27;101243.56;;;13.33;64.54
29825;BME280;16713;52.916;12.834;2023-06-14T02:56:53;101244.28;;;13.30;65.76
29825;BME280;16713;52.916;12.834;2023-06-14T02:59:20;101249.78;;;13.30;66.27
29825;BME280;16713;52.916;12.834;2023-06-14T03:01:47;101239.00;;;13.22;65.22
29825;BME280;16713;52.916;12.834;2023-06-14T03:04:14;101241.56;;;13.15;66.59
29825;BME280;16713;52.916;12.834;2023-06-14T03:06:41;101235.78;;;13.20;66.37
29825;BME280;16713;52.916;12.834;2023-06-14T03:09:10;101239.63;;;13.15;67.62
29825;BME280;16713;52.916;12.834;2023-06-14T03:11:37;101233.22;;;13.11;67.42
29825;BME280;16713;52.916;12.834;2023-06-14T03:14:03;101233.31;;;13.15;66.56
29825;BME280;16713;52.916;12.834;2023-06-14T03:16:30;101234.81;;;13.12;66.71
29825;BME280;16713;52.916;12.834;2023-06-14T03:18:58;101240.63;;;13.07;68.20
29825;BME280;16713;52.916;12.834;2023-06-14T03:21:24;101249.75;;;13.11;68.58
29825;BME280;16713;52.916;12.834;2023-06-14T03:23:52;101249.31;;;13.09;67.94
29825;BME280;16713;52.916;12.834;2023-06-14T03:26:19;101243.75;;;13.06;68.36
29825;BME280;16713;52.916;12.834;2023-06-14T03:28:46;101252.41;;;13.08;68.43
29825;BME280;16713;52.916;12.834;2023-06-14T03:31:13;101253.03;;;13.01;68.54
29825;BME280;16713;52.916;12.834;2023-06-14T03:33:40;101251.09;;;13.02;68.61
29825;BME280;16713;52.916;12.834;2023-06-14T03:36:07;101250.13;;;13.10;69.71
29825;BME280;16713;52.916;12.834;2023-06-14T03:38:33;101252.63;;;12.99;68.91
29825;BME280;16713;52.916;12.834;2023-06-14T03:41:01;101260.25;;;13.06;69.40
29825;BME280;16713;52.916;12.834;2023-06-14T03:43:27;101255.91;;;12.89;69.23
29825;BME280;16713;52.916;12.834;2023-06-14T03:45:54;101266.22;;;12.92;70.09
29825;BME280;16713;52.916;12.834;2023-06-14T03:48:20;101264.50;;;13.03;69.00
29825;BME280;16713;52.916;12.834;2023-06-14T03:50:47;101265.22;;;13.00;69.32
29825;BME280;16713;52.916;12.834;2023-06-14T03:53:13;101260.34;;;12.94;70.51
29825;BME280;16713;52.916;12.834;2023-06-14T03:55:40;101270.47;;;13.05;69.78
29825;BME280;16713;52.916;12.834;2023-06-14T03:58:10;101264.00;;;12.82;69.52
29825;BME280;16713;52.916;12.834;2023-06-14T04:00:37;101262.50;;;12.85;70.27
29825;BME280;16713;52.916;12.834;2023-06-14T04:03:04;101273.09;;;13.17;69.28
29825;BME280;16713;52.916;12.834;2023-06-14T04:05:32;101275.84;;;13.33;69.88
29825;BME280;16713;52.916;12.834;2023-06-14T04:07:59;101280.00;;;13.43;68.58
29825;BME280;16713;52.916;12.834;2023-06-14T04:10:27;101278.34;;;13.57;69.50
29825;BME280;16713;52.916;12.834;2023-06-14T04:12:54;101283.81;;;13.73;68.51
29825;BME280;16713;52.916;12.834;2023-06-14T04:15:20;101283.59;;;13.62;69.41
29825;BME280;16713;52.916;12.834;2023-06-14T04:17:48;101281.25;;;13.64;68.60
29825;BME280;16713;52.916;12.834;2023-06-14T04:20:14;101291.91;;;13.81;68.36
29825;BME280;16713;52.916;12.834;2023-06-14T04:22:42;101294.88;;;13.92;69.18
29825;BME280;16713;52.916;12.834;2023-06-14T04:25:09;101291.91;;;14.00;67.91
29825;BME280;16713;52.916;12.834;2023-06-14T04:27:37;101295.88;;;14.03;68.98
29825;BME280;16713;52.916;12.834;2023-06-14T04:30:05;101308.34;;;14.16;68.38
29825;BME280;16713;52.916;12.834;2023-06-14T04:32:32;101308.88;;;14.02;68.29
29825;BME280;16713;52.916;12.834;2023-06-14T04:35:08;101320.56;;;13.96;69.36
29825;BME280;16713;52.916;12.834;2023-06-14T04:37:35;101329.91;;;13.91;69.23
29825;BME280;16713;52.916;12.834;2023-06-14T04:40:06;101337.75;;;13.89;69.90
29825;BME280;16713;52.916;12.834;2023-06-14T04:42:37;101332.81;;;13.98;68.81
29825;BME280;16713;52.916;12.834;2023-06-14T04:45:05;101341.19;;;14.02;68.31
29825;BME280;16713;52.916;12.834;2023-06-14T04:47:33;101339.88;;;14.15;69.68
29825;BME280;16713;52.916;12.834;2023-06-14T04:50:00;101341.47;;;14.16;69.58
29825;BME280;16713;52.916;12.834;2023-06-14T04:52:29;101343.19;;;14.24;69.01
29825;BME280;16713;52.916;12.834;2023-06-14T04:54:56;101342.56;;;14.30;68.78
29825;BME280;16713;52.916;12.834;2023-06-14T04:57:24;101345.47;;;14.37;68.05
29825;BME280;16713;52.916;12.834;2023-06-14T04:59:52;101336.38;;;14.37;67.68
29825;BME280;16713;52.916;12.834;2023-06-14T05:02:22;101337.97;;;14.38;67.89
29825;BME280;16713;52.916;12.834;2023-06-14T05:04:50;101338.53;;;14.47;68.46
29825;BME280;16713;52.916;12.834;2023-06-14T05:07:17;101349.66;;;14.50;68.57
29825;BME280;16713;52.916;12.834;2023-06-14T05:09:44;101341.00;;;14.52;68.09
29825;BME280;16713;52.916;12.834;2023-06-14T05:12:11;101347.00;;;14.57;68.23
29825;BME280;16713;52.916;12.834;2023-06-14T05:14:37;101342.78;;;14.60;67.55
29825;BME280;16713;52.916;12.834;2023-06-14T05:17:04;101350.44;;;14.70;67.65
29825;BME280;16713;52.916;12.834;2023-06-14T05:19:31;101348.78;;;14.65;68.53
29825;BME280;16713;52.916;12.834;2023-06-14T05:21:57;101361.75;;;14.84;67.71
29825;BME280;16713;52.916;12.834;2023-06-14T05:24:24;101362.16;;;14.86;68.54
29825;BME280;16713;52.916;12.834;2023-06-14T05:26:51;101368.50;;;14.87;68.07
29825;BME280;16713;52.916;12.834;2023-06-14T05:29:18;101362.09;;;15.05;66.96
29825;BME280;16713;52.916;12.834;2023-06-14T05:31:44;101362.59;;;15.11;67.19
29825;BME280;16713;52.916;12.834;2023-06-14T05:34:11;101363.09;;;15.16;66.80
29825;BME280;16713;52.916;12.834;2023-06-14T05:36:38;101369.09;;;15.22;67.58
29825;BME280;16713;52.916;12.834;2023-06-14T05:39:05;101369.69;;;15.34;66.93
29825;BME280;16713;52.916;12.834;2023-06-14T05:41:32;101374.13;;;15.39;66.79
29825;BME280;16713;52.916;12.834;2023-06-14T05:43:59;101378.78;;;15.57;66.83
29825;BME280;16713;52.916;12.834;2023-06-14T05:46:26;101373.25;;;15.57;65.82
29825;BME280;16713;52.916;12.834;2023-06-14T05:48:53;101378.22;;;15.71;66.80
29825;BME280;16713;52.916;12.834;2023-06-14T05:51:20;101375.91;;;15.76;66.71
29825;BME280;16713;52.916;12.834;2023-06-14T05:53:48;101383.47;;;15.79;65.11
29825;BME280;16713;52.916;12.834;2023-06-14T05:56:15;101387.28;;;15.97;65.25
29825;BME280;16713;52.916;12.834;2023-06-14T05:58:45;101384.09;;;15.95;65.62
29825;BME280;16713;52.916;12.834;2023-06-14T06:01:12;101384.47;;;15.94;64.33
29825;BME280;16713;52.916;12.834;2023-06-14T06:03:39;101385.50;;;16.12;64.84
29825;BME280;16713;52.916;12.834;2023-06-14T06:06:06;101394.56;;;16.39;64.23
29825;BME280;16713;52.916;12.834;2023-06-14T06:08:33;101390.59;;;16.36;63.82
29825;BME280;16713;52.916;12.834;2023-06-14T06:10:59;101403.97;;;16.64;63.71
29825;BME280;16713;52.916;12.834;2023-06-14T06:13:27;101391.44;;;16.77;63.18
29825;BME280;16713;52.916;12.834;2023-06-14T06:15:53;101383.97;;;16.81;62.82
29825;BME280;16713;52.916;12.834;2023-06-14T06:18:19;101382.88;;;16.92;62.79
29825;BME280;16713;52.916;12.834;2023-06-14T06:20:46;101392.06;;;17.00;62.03
29825;BME280;16713;52.916;12.834;2023-06-14T06:23:13;101393.44;;;17.16;62.40
29825;BME280;16713;52.916;12.834;2023-06-14T06:25:40;101389.56;;;17.24;61.70
29825;BME280;16713;52.916;12.834;2023-06-14T06:28:06;101393.56;;;17.30;61.15
29825;BME280;16713;52.916;12.834;2023-06-14T06:30:33;101392.00;;;17.33;61.20
29825;BME280;16713;52.916;12.834;2023-06-14T06:32:59;101388.84;;;17.38;61.17
29825;BME280;16713;52.916;12.834;2023-06-14T06:35:26;101393.38;;;17.57;60.71
29825;BME280;16713;52.916;12.834;2023-06-14T06:37:52;101403.91;;;17.88;60.88
29825;BME280;16713;52.916;12.834;2023-06-14T06:40:19;101411.91;;;17.96;60.24
29825;BME280;16713;52.916;12.834;2023-06-14T06:42:46;101413.53;;;18.04;59.39
29825;BME280;16713;52.916;12.834;2023-06-14T06:45:12;101419.56;;;18.20;59.04
29825;BME280;16713;52.916;12.834;2023-06-14T06:47:39;101425.16;;;18.27;58.80
29825;BME280;16713;52.916;12.834;2023-06-14T06:50:07;101429.16;;;18.33;57.83
29825;BME280;16713;52.916;12.834;2023-06-14T06:52:34;101434.78;;;18.44;57.99
29825;BME280;16713;52.916;12.834;2023-06-14T06:55:00;101431.59;;;18.45;58.26
29825;BME280;16713;52.916;12.834;2023-06-14T06:57:28;101434.03;;;18.61;58.51
29825;BME280;16713;52.916;12.834;2023-06-14T06:59:58;101424.47;;;18.51;58.51
29825;BME280;16713;52.916;12.834;2023-06-14T07:02:24;101430.94;;;18.76;58.89
29825;BME280;16713;52.916;12.834;2023-06-14T07:04:51;101431.28;;;18.68;58.08
29825;BME280;16713;52.916;12.834;2023-06-14T07:07:17;101434.09;;;18.75;57.66
29825;BME280;16713;52.916;12.834;2023-06-14T07:09:44;101440.09;;;18.84;58.74
29825;BME280;16713;52.916;12.834;2023-06-14T07:12:12;101431.25;;;18.61;58.15
29825;BME280;16713;52.916;12.834;2023-06-14T07:14:38;101435.69;;;18.72;57.73
29825;BME280;16713;52.916;12.834;2023-06-14T07:17:05;101437.22;;;18.70;57.44
29825;BME280;16713;52.916;12.834;2023-06-14T07:19:32;101441.28;;;18.87;59.00
29825;BME280;16713;52.916;12.834;2023-06-14T07:21:59;101438.91;;;18.85;58.83
29825;BME280;16713;52.916;12.834;2023-06-14T07:24:26;101448.88;;;19.00;58.58
29825;BME280;16713;52.916;12.834;2023-06-14T07:26:55;101452.06;;;19.06;57.69
29825;BME280;16713;52.916;12.834;2023-06-14T07:29:22;101442.50;;;18.86;55.77
29825;BME280;16713;52.916;12.834;2023-06-14T07:31:49;101443.31;;;18.97;55.69
29825;BME280;16713;52.916;12.834;2023-06-14T07:34:15;101437.22;;;18.66;56.46
29825;BME280;16713;52.916;12.834;2023-06-14T07:36:42;101430.03;;;18.58;55.61
29825;BME280;16713;52.916;12.834;2023-06-14T07:39:11;101431.28;;;18.71;55.93
29825;BME280;16713;52.916;12.834;2023-06-14T07:41:37;101431.28;;;18.68;55.50
29825;BME280;16713;52.916;12.834;2023-06-14T07:44:04;101438.50;;;18.87;55.92
29825;BME280;16713;52.916;12.834;2023-06-14T07:46:30;101434.53;;;18.88;54.99
29825;BME280;16713;52.916;12.834;2023-06-14T07:48:57;101429.38;;;18.86;55.22
29825;BME280;16713;52.916;12.834;2023-06-14T07:51:24;101426.97;;;18.81;55.41
29825;BME280;16713;52.916;12.834;2023-06-14T07:53:50;101419.81;;;18.80;55.73
29825;BME280;16713;52.916;12.834;2023-06-14T07:56:17;101418.66;;;18.88;54.29
29825;BME280;16713;52.916;12.834;2023-06-14T07:58:43;101424.22;;;18.99;55.14
29825;BME280;16713;52.916;12.834;2023-06-14T08:01:10;101422.25;;;19.03;55.55
29825;BME280;16713;52.916;12.834;2023-06-14T08:03:37;101422.25;;;19.03;54.37
29825;BME280;16713;52.916;12.834;2023-06-14T08:06:05;101416.72;;;19.27;54.06
29825;BME280;16713;52.916;12.834;2023-06-14T08:08:32;101425.47;;;19.40;54.78
29825;BME280;16713;52.916;12.834;2023-06-14T08:10:59;101416.75;;;19.55;54.01
29825;BME280;16713;52.916;12.834;2023-06-14T08:13:25;101417.53;;;19.66;53.12
29825;BME280;16713;52.916;12.834;2023-06-14T08:15:52;101421.53;;;19.72;53.28
29825;BME280;16713;52.916;12.834;2023-06-14T08:18:19;101425.06;;;19.87;52.07
29825;BME280;16713;52.916;12.834;2023-06-14T08:20:46;101428.19;;;20.06;51.48
29825;BME280;16713;52.916;12.834;2023-06-14T08:23:12;101419.84;;;20.03;52.12
29825;BME280;16713;52.916;12.834;2023-06-14T08:25:39;101428.19;;;20.24;52.24
29825;BME280;16713;52.916;12.834;2023-06-14T08:28:06;101424.59;;;20.27;52.17
29825;BME280;16713;52.916;12.834;2023-06-14T08:30:32;101428.50;;;20.47;51.38
29825;BME280;16713;52.916;12.834;2023-06-14T08:32:59;101428.44;;;20.61;51.28
29825;BME280;16713;52.916;12.834;2023-06-14T08:35:42;101424.47;;;20.62;48.87
29825;BME280;16713;52.916;12.834;2023-06-14T08:38:10;101431.09;;;20.93;49.14
29825;BME280;16713;52.916;12.834;2023-06-14T08:40:37;101438.88;;;21.15;49.88
29825;BME280;16713;52.916;12.834;2023-06-14T08:43:05;101445.69;;;21.14;49.03
29825;BME280;16713;52.916;12.834;2023-06-14T08:45:32;101438.44;;;21.24;49.19
29825;BME280;16713;52.916;12.834;2023-06-14T08:47:59;101440.41;;;21.27;49.25
29825;BME280;16713;52.916;12.834;2023-06-14T08:50:27;101454.66;;;21.39;51.66
29825;BME280;16713;52.916;12.834;2023-06-14T08:53:00;101445.50;;;21.42;49.04
29825;BME280;16713;52.916;12.834;2023-06-14T08:55:29;101446.59;;;21.55;48.85
29825;BME280;16713;52.916;12.834;2023-06-14T08:58:01;101439.91;;;21.42;47.42
29825;BME280;16713;52.916;12.834;2023-06-14T09:00:29;101443.56;;;21.32;47.00
29825;BME280;16713;52.916;12.834;2023-06-14T09:02:57;101441.72;;;21.12;46.82
29825;BME280;16713;52.916;12.834;2023-06-14T09:05:26;101452.81;;;21.22;47.79
29825;BME280;16713;52.916;12.834;2023-06-14T09:07:53;101429.91;;;20.90;46.24
29825;BME280;16713;52.916;12.834;2023-06-14T09:10:24;101434.31;;;20.88;46.04
29825;BME280;16713;52.916;12.834;2023-06-14T09:12:53;101435.06;;;20.88;46.68
29825;BME280;16713;52.916;12.834;2023-06-14T09:15:20;101427.94;;;20.87;46.29
29825;BME280;16713;52.916;12.834;2023-06-14T09:17:47;101430.06;;;20.52;46.51
29825;BME280;16713;52.916;12.834;2023-06-14T09:20:14;101433.97;;;20.72;46.87
29825;BME280;16713;52.916;12.834;2023-06-14T09:22:46;101431.53;;;20.88;47.30
29825;BME280;16713;52.916;12.834;2023-06-14T09:25:12;101423.25;;;20.60;47.70
29825;BME280;16713;52.916;12.834;2023-06-14T09:27:58;101424.06;;;20.57;47.02
29825;BME280;16713;52.916;12.834;2023-06-14T09:30:25;101430.41;;;20.64;47.97
29825;BME280;16713;52.916;12.834;2023-06-14T09:32:52;101427.56;;;20.78;47.05
29825;BME280;16713;52.916;12.834;2023-06-14T09:35:20;101424.06;;;20.57;47.46
29825;BME280;16713;52.916;12.834;2023-06-14T09:37:47;101415.38;;;20.48;47.59
29825;BME280;16713;52.916;12.834;2023-06-14T09:40:20;101414.16;;;20.45;47.48
29825;BME280;16713;52.916;12.834;2023-06-14T09:42:47;101416.53;;;20.50;48.28
29825;BME280;16713;52.916;12.834;2023-06-14T09:45:13;101404.66;;;20.36;47.82
29825;BME280;16713;52.916;12.834;2023-06-14T09:47:46;101402.25;;;20.38;48.35
29825;BME280;16713;52.916;12.834;2023-06-14T09:50:31;101415.31;;;20.55;47.68
29825;BME280;16713;52.916;12.834;2023-06-14T09:53:03;101397.91;;;20.37;47.47
29825;BME280;16713;52.916;12.834;2023-06-14T09:55:30;101396.34;;;20.22;46.03
29825;BME280;16713;52.916;12.834;2023-06-14T09:57:59;101395.06;;;20.44;45.79
29825;BME280;16713;52.916;12.834;2023-06-14T10:00:27;101390.69;;;20.46;47.32
29825;BME280;16713;52.916;12.834;2023-06-14T10:03:00;101407.69;;;20.69;46.55
29825;BME280;16713;52.916;12.834;2023-06-14T10:05:27;101405.19;;;20.92;45.97
29825;BME280;16713;52.916;12.834;2023-06-14T10:08:08;101414.66;;;21.09;46.13
29825;BME280;16713;52.916;12.834;2023-06-14T10:10:35;101419.69;;;21.28;45.40
29825;BME280;16713;52.916;12.834;2023-06-14T10:13:05;101427.97;;;21.35;44.60
29825;BME280;16713;52.916;12.834;2023-06-14T10:15:40;101421.25;;;21.29;43.41
29825;BME280;16713;52.916;12.834;2023-06-14T10:18:19;101424.00;;;21.36;42.14
29825;BME280;16713;52.916;12.834;2023-06-14T10:21:13;101422.00;;;21.36;42.31
29825;BME280;16713;52.916;12.834;2023-06-14T10:23:44;101427.84;;;21.52;42.09
29825;BME280;16713;52.916;12.834;2023-06-14T10:26:20;101430.16;;;21.65;42.05
29825;BME280;16713;52.916;12.834;2023-06-14T10:29:01;101436.81;;;21.81;42.24
29825;BME280;16713;52.916;12.834;2023-06-14T10:31:43;101425.91;;;21.94;42.08
29825;BME280;16713;52.916;12.834;2023-06-14T10:34:12;101421.88;;;21.95;41.58
29825;BME280;16713;52.916;12.834;2023-06-14T10:36:42;101429.63;;;22.17;42.48
29825;BME280;16713;52.916;12.834;2023-06-14T10:39:17;101423.16;;;22.27;41.24
29825;BME280;16713;52.916;12.834;2023-06-14T10:41:54;101424.13;;;22.44;40.68
29825;BME280;16713;52.916;12.834;2023-06-14T10:46:54;101424.63;;;22.39;40.78
29825;BME280;16713;52.916;12.834;2023-06-14T10:52:17;101415.88;;;22.33;41.51
29825;BME280;16713;52.916;12.834;2023-06-14T10:55:01;101408.50;;;22.13;41.09
29825;BME280;16713;52.916;12.834;2023-06-14T10:57:28;101416.06;;;22.16;41.13
29825;BME280;16713;52.916;12.834;2023-06-14T10:59:54;101402.13;;;22.12;40.46
29825;BME280;16713;52.916;12.834;2023-06-14T11:02:47;101398.59;;;22.08;40.76
29825;BME280;16713;52.916;12.834;2023-06-14T11:05:23;101403.38;;;22.08;40.09
29825;BME280;16713;52.916;12.834;2023-06-14T11:08:24;101392.66;;;22.03;40.81
29825;BME280;16713;52.916;12.834;2023-06-14T11:10:56;101397.41;;;22.06;40.92
29825;BME280;16713;52.916;12.834;2023-06-14T11:13:25;101389.88;;;22.03;41.41
29825;BME280;16713;52.916;12.834;2023-06-14T11:15:52;101378.91;;;21.82;41.51
29825;BME280;16713;52.916;12.834;2023-06-14T11:18:24;101378.38;;;21.97;41.14
29825;BME280;16713;52.916;12.834;2023-06-14T11:20:51;101382.31;;;22.00;41.56
29825;BME280;16713;52.916;12.834;2023-06-14T11:23:17;101375.97;;;21.96;41.33
29825;BME280;16713;52.916;12.834;2023-06-14T11:25:50;101372.28;;;22.02;40.66
29825;BME280;16713;52.916;12.834;2023-06-14T11:28:16;101371.97;;;21.97;41.14
29825;BME280;16713;52.916;12.834;2023-06-14T11:30:43;101375.88;;;22.03;42.85
29825;BME280;16713;52.916;12.834;2023-06-14T11:33:10;101374.13;;;21.82;41.86
29825;BME280;16713;52.916;12.834;2023-06-14T11:35:37;101369.88;;;21.67;41.44
29825;BME280;16713;52.916;12.834;2023-06-14T11:38:04;101364.88;;;21.48;41.11
29825;BME280;16713;52.916;12.834;2023-06-14T11:40:31;101370.34;;;21.62;41.43
29825;BME280;16713;52.916;12.834;2023-06-14T11:43:02;101361.81;;;21.32;41.88
29825;BME280;16713;52.916;12.834;2023-06-14T11:45:29;101365.84;;;21.31;42.11
29825;BME280;16713;52.916;12.834;2023-06-14T11:47:58;101356.72;;;21.23;41.89
29825;BME280;16713;52.916;12.834;2023-06-14T11:50:26;101354.72;;;21.24;42.51
29825;BME280;16713;52.916;12.834;2023-06-14T11:52:54;101348.06;;;21.07;43.00
29825;BME280;16713;52.916;12.834;2023-06-14T11:55:22;101355.50;;;21.28;42.42
29825;BME280;16713;52.916;12.834;2023-06-14T11:57:50;101350.25;;;21.33;42.26
29825;BME280;16713;52.916;12.834;2023-06-14T12:00:17;101357.75;;;21.43;43.25
29825;BME280;16713;52.916;12.834;2023-06-14T12:02:53;101352.97;;;21.40;42.95
29825;BME280;16713;52.916;12.834;2023-06-14T12:05:23;101359.22;;;21.59;42.70
29825;BME280;16713;52.916;12.834;2023-06-14T12:07:50;101350.44;;;21.60;41.59
29825;BME280;16713;52.916;12.834;2023-06-14T12:10:19;101352.19;;;21.81;41.82
29825;BME280;16713;52.916;12.834;2023-06-14T12:12:46;101345.78;;;21.84;41.65
29825;BME280;16713;52.916;12.834;2023-06-14T12:15:13;101347.50;;;22.08;41.34
29825;BME280;16713;52.916;12.834;2023-06-14T12:17:42;101342.97;;;22.21;40.68
29825;BME280;16713;52.916;12.834;2023-06-14T12:20:11;101342.31;;;22.40;40.83
29825;BME280;16713;52.916;12.834;2023-06-14T12:22:52;101343.19;;;22.33;41.11
29825;BME280;16713;52.916;12.834;2023-06-14T12:25:37;101332.47;;;22.28;39.91
29825;BME280;16713;52.916;12.834;2023-06-14T12:28:06;101333.03;;;22.46;40.03
29825;BME280;16713;52.916;12.834;2023-06-14T12:30:35;101341.47;;;22.43;40.12
29825;BME280;16713;52.916;12.834;2023-06-14T12:33:03;101337.66;;;22.30;40.05
29825;BME280;16713;52.916;12.834;2023-06-14T12:35:30;101346.09;;;22.56;40.99
29825;BME280;16713;52.916;12.834;2023-06-14T12:37:56;101349.13;;;22.65;40.31
29825;BME280;16713;52.916;12.834;2023-06-14T12:40:23;101343.50;;;22.69;40.14
29825;BME280;16713;52.916;12.834;2023-06-14T12:42:50;101343.59;;;22.62;39.06
29825;BME280;16713;52.916;12.834;2023-06-14T12:45:16;101343.34;;;22.53;38.86
29825;BME280;16713;52.916;12.834;2023-06-14T12:47:44;101338.31;;;22.67;39.22
29825;BME280;16713;52.916;12.834;2023-06-14T12:50:10;101336.00;;;22.62;39.73
29825;BME280;16713;52.916;12.834;2023-06-14T12:52:37;101337.31;;;22.54;40.14
29825;BME280;16713;52.916;12.834;2023-06-14T12:55:04;101345.28;;;22.56;39.81